createdAt,value
2019-04-04T00:03:59.969Z,98397.38
2019-04-04T00:09:05.535Z,98407.47
2019-04-04T00:14:12.738Z,98405.06
2019-04-04T00:19:15.384Z,98398.16
2019-04-04T00:24:19.503Z,98398.16
2019-04-04T00:29:23.594Z,98396.98
2019-04-04T00:34:28.590Z,98389.53
2019-04-04T00:39:32.830Z,98391.54
2019-04-04T00:44:36.934Z,98393.05
2019-04-04T00:49:40.979Z,98382.78
2019-04-04T00:54:45.471Z,98382.78
2019-04-04T00:59:49.563Z,98405.97
2019-04-04T01:04:53.635Z,98407.98
2019-04-04T01:09:57.667Z,98407.98
2019-04-04T01:15:01.748Z,98415.34
2019-04-04T01:20:08.549Z,98415.34
2019-04-04T01:25:12.730Z,98415.66
2019-04-04T01:30:17.007Z,98421.68
2019-04-04T01:35:22.887Z,98424.53
2019-04-04T01:40:26.850Z,98424.53
2019-04-04T01:45:30.938Z,98438.16
2019-04-04T01:50:34.943Z,98445.05
2019-04-04T01:55:38.959Z,98445.05
2019-04-04T02:00:44.006Z,98457.62
2019-04-04T02:05:48.746Z,98449.66
2019-04-04T02:10:52.915Z,98437.63
2019-04-04T02:15:56.957Z,98454.36
2019-04-04T02:21:00.991Z,98455.86
2019-04-04T02:26:05.769Z,98465.28
2019-04-04T02:31:10.438Z,98466.63
2019-04-04T02:36:16.629Z,98472.64
2019-04-04T02:41:20.291Z,98481.72
2019-04-04T02:46:24.308Z,98487.77
2019-04-04T02:51:28.485Z,98482.54
2019-04-04T02:56:34.927Z,98482.54
2019-04-04T03:01:38.377Z,98472.50
2019-04-04T03:06:42.868Z,98469.79
2019-04-04T03:11:47.071Z,98456.46
2019-04-04T03:16:51.236Z,98456.46
2019-04-04T03:21:56.148Z,98454.55
2019-04-04T03:27:00.982Z,98454.55
2019-04-04T03:32:05.079Z,98445.77
2019-04-04T03:37:12.311Z,98446.27
2019-04-04T03:42:14.953Z,98458.88
2019-04-04T03:47:18.953Z,98451.65
2019-04-04T03:52:23.013Z,98451.46
2019-04-04T03:57:27.043Z,98450.62
2019-04-04T04:02:31.157Z,98456.50
2019-04-04T04:07:35.172Z,98444.17
2019-04-04T04:12:42.695Z,98444.67
2019-04-04T04:17:45.646Z,98455.25
2019-04-04T04:22:51.527Z,98444.12
2019-04-04T04:27:55.684Z,98444.12
2019-04-04T04:32:59.822Z,98442.08
2019-04-04T04:38:03.841Z,98442.08
2019-04-04T04:43:07.865Z,98459.85
2019-04-04T04:48:11.895Z,98450.09
2019-04-04T04:53:18.339Z,98450.09
2019-04-04T04:58:21.752Z,98425.98
2019-04-04T05:03:25.809Z,98424.30
2019-04-04T05:08:29.804Z,98424.64
2019-04-04T05:13:33.810Z,98441.43
2019-04-04T05:18:37.811Z,98426.42
2019-04-04T05:23:41.873Z,98426.42
2019-04-04T05:28:45.968Z,98434.98
2019-04-04T05:33:49.968Z,98434.98
2019-04-04T05:38:54.047Z,98439.09
2019-04-04T05:43:58.117Z,98439.21
2019-04-04T05:49:07.756Z,98420.89
2019-04-04T05:54:08.406Z,98419.33
2019-04-04T05:59:12.576Z,98437.15
2019-04-04T06:04:17.261Z,98434.96
2019-04-04T06:09:22.310Z,98436.80
2019-04-04T06:14:29.674Z,98431.89
2019-04-04T06:19:32.054Z,98431.89
2019-04-04T06:24:36.067Z,98432.89
2019-04-04T06:29:40.138Z,98410.20
2019-04-04T06:34:44.817Z,98410.20
2019-04-04T06:39:48.914Z,98419.61
2019-04-04T06:44:54.258Z,98419.61
2019-04-04T06:49:58.521Z,98418.77
2019-04-04T06:55:02.614Z,98419.45
2019-04-04T07:00:08.468Z,98419.45
2019-04-04T07:05:12.567Z,98416.66
2019-04-04T07:10:16.760Z,98410.44
2019-04-04T07:15:20.784Z,98430.67
2019-04-04T07:20:24.795Z,98430.67
2019-04-04T07:25:28.798Z,98417.73
2019-04-04T07:30:32.813Z,98418.21
2019-04-04T07:35:36.893Z,98414.77
2019-04-04T07:40:40.927Z,98414.77
2019-04-04T07:45:44.953Z,98406.25
2019-04-04T07:50:51.386Z,98400.72
2019-04-04T07:55:54.963Z,98400.72
2019-04-04T08:01:00.065Z,98390.06
2019-04-04T08:06:04.161Z,98390.06
2019-04-04T08:11:08.320Z,98398.00
2019-04-04T08:16:12.483Z,98393.18
2019-04-04T08:21:16.491Z,98393.18
2019-04-04T08:26:20.660Z,98383.44
2019-04-04T08:31:24.675Z,98385.16
2019-04-04T08:36:28.763Z,98376.22
2019-04-04T08:41:32.788Z,98372.56
2019-04-04T08:46:36.971Z,98370.16
2019-04-04T08:51:41.100Z,98346.22
2019-04-04T08:56:45.114Z,98360.09
2019-04-04T09:01:49.154Z,98355.43
2019-04-04T09:06:53.159Z,98347.02
2019-04-04T09:11:57.251Z,98347.02
2019-04-04T09:17:01.376Z,98350.39
2019-04-04T09:22:05.546Z,98348.36
2019-04-04T09:27:09.571Z,98321.70
2019-04-04T09:32:13.700Z,98334.55
2019-04-04T09:37:17.737Z,98316.98
2019-04-04T09:42:21.749Z,98326.48
2019-04-04T09:47:25.856Z,98310.11
2019-04-04T09:52:29.960Z,98321.11
2019-04-04T09:57:33.996Z,98321.11
2019-04-04T10:02:38.081Z,98319.92
2019-04-04T10:07:42.195Z,98325.30
2019-04-04T10:12:46.282Z,98323.33
2019-04-04T10:17:50.333Z,98323.33
2019-04-04T10:22:54.367Z,98311.70
2019-04-04T10:27:58.450Z,98310.23
2019-04-04T10:33:02.481Z,98310.23
2019-04-04T10:38:06.487Z,98272.44
2019-04-04T10:43:10.561Z,98264.71
2019-04-04T10:48:14.606Z,98262.36
2019-04-04T10:53:18.631Z,98254.67
2019-04-04T10:58:22.642Z,98255.35
2019-04-04T11:03:26.815Z,98255.35
2019-04-04T11:08:30.921Z,98265.45
2019-04-04T11:13:34.940Z,98249.05
2019-04-04T11:18:38.964Z,98244.72
2019-04-04T11:23:43.111Z,98244.72
2019-04-04T11:28:47.121Z,98243.88
2019-04-04T11:33:51.127Z,98245.49
2019-04-04T11:38:55.207Z,98255.45
2019-04-04T11:43:59.237Z,98242.55
2019-04-04T11:49:04.065Z,98250.73
2019-04-04T11:54:08.086Z,98241.50
2019-04-04T11:59:12.102Z,98238.66
2019-04-04T12:04:16.207Z,98238.66
2019-04-04T12:09:20.231Z,98253.64
2019-04-04T12:14:24.241Z,98247.33
2019-04-04T12:19:28.245Z,98230.13
2019-04-04T12:24:32.321Z,98234.69
2019-04-04T12:29:36.387Z,98230.47
2019-04-04T12:34:40.484Z,98215.36
2019-04-04T12:39:44.630Z,98214.30
2019-04-04T12:44:48.714Z,98214.30
2019-04-04T12:49:52.808Z,98191.70
2019-04-04T12:54:56.886Z,98188.96
2019-04-04T13:00:00.928Z,98182.81
2019-04-04T13:05:05.608Z,98161.50
2019-04-04T13:10:12.057Z,98156.27
2019-04-04T13:15:16.934Z,98168.42
2019-04-04T13:20:21.191Z,98144.94
2019-04-04T13:25:25.563Z,98141.91
2019-04-04T13:30:29.568Z,98141.91
2019-04-04T13:35:33.598Z,98145.66
2019-04-04T13:40:45.182Z,98131.03
2019-04-04T13:45:43.538Z,98131.03
2019-04-04T13:50:47.632Z,98139.31
2019-04-04T13:55:51.753Z,98125.16
2019-04-04T14:00:55.796Z,98120.82
2019-04-04T14:06:01.830Z,98130.07
2019-04-04T14:11:05.651Z,98131.12
2019-04-04T14:16:09.768Z,98134.48
2019-04-04T14:21:13.951Z,98134.48
2019-04-04T14:26:17.993Z,98134.47
2019-04-04T14:31:22.003Z,98119.94
2019-04-04T14:36:26.073Z,98119.94
2019-04-04T14:41:30.111Z,98122.23
2019-04-04T14:46:34.579Z,98126.59
2019-04-04T14:51:38.597Z,98116.81
2019-04-04T14:56:42.740Z,98090.88
2019-04-04T15:01:46.858Z,98103.73
2019-04-04T15:06:51.021Z,98115.59
2019-04-04T15:11:55.107Z,98094.17
2019-04-04T15:16:59.086Z,98094.17
2019-04-04T15:22:03.193Z,98111.03
2019-04-04T15:27:07.310Z,98123.88
2019-04-04T15:32:11.468Z,98123.88
2019-04-04T15:37:15.442Z,98113.28
2019-04-04T15:42:19.495Z,98129.71
2019-04-04T15:47:23.504Z,98126.32
2019-04-04T15:52:27.549Z,98139.33
2019-04-04T15:57:31.720Z,98145.73
2019-04-04T16:02:35.954Z,98161.38
2019-04-04T16:07:40.096Z,98167.05
2019-04-04T16:12:44.089Z,98170.36
2019-04-04T16:17:48.221Z,98174.99
2019-04-04T16:22:52.248Z,98179.56
2019-04-04T16:27:56.381Z,98179.56
2019-04-04T16:33:00.503Z,98164.74
2019-04-04T16:38:04.751Z,98164.74
2019-04-04T16:43:08.768Z,98169.48
2019-04-04T16:48:13.997Z,98169.79
2019-04-04T16:53:18.271Z,98186.17
2019-04-04T16:58:22.594Z,98196.14
2019-04-04T17:03:26.725Z,98199.80
2019-04-04T17:08:30.924Z,98202.87
2019-04-04T17:13:34.987Z,98210.08
2019-04-04T17:18:39.189Z,98203.48
2019-04-04T17:23:43.293Z,98223.37
2019-04-04T17:28:47.917Z,98229.56
2019-04-04T17:33:52.643Z,98229.56
2019-04-04T17:38:56.794Z,98234.48
2019-04-04T17:44:01.072Z,98233.67
2019-04-04T17:49:05.509Z,98219.30
2019-04-04T17:54:09.695Z,98239.47
2019-04-04T17:59:13.899Z,98242.19
2019-04-04T18:04:17.911Z,98247.25
2019-04-04T18:09:31.740Z,98247.25
2019-04-04T18:14:28.368Z,98249.09
2019-04-04T18:19:32.483Z,98243.67
2019-04-04T18:24:36.710Z,98261.55
2019-04-04T18:29:40.807Z,98262.34
2019-04-04T18:34:45.241Z,98275.48
2019-04-04T18:39:49.451Z,98283.00
2019-04-04T18:44:53.494Z,98283.00
2019-04-04T18:49:57.492Z,98304.91
2019-04-04T18:55:01.525Z,98314.01
2019-04-04T19:00:08.555Z,98314.01
2019-04-04T19:05:13.506Z,98331.89
2019-04-04T19:10:18.287Z,98339.17
2019-04-04T19:15:22.440Z,98339.17
2019-04-04T19:20:27.703Z,98345.48
2019-04-04T19:25:31.845Z,98354.22
2019-04-04T19:30:36.063Z,98369.89
2019-04-04T19:35:40.257Z,98397.36
2019-04-04T19:40:44.390Z,98418.75
2019-04-04T19:45:48.417Z,98423.44
2019-04-04T19:50:52.470Z,98403.85
2019-04-04T19:55:56.625Z,98421.38
2019-04-04T20:01:00.832Z,98429.97
2019-04-04T20:06:05.034Z,98445.30
2019-04-04T20:11:09.236Z,98450.17
2019-04-04T20:16:13.268Z,98454.86
2019-04-04T20:21:17.405Z,98461.09
2019-04-04T20:26:21.430Z,98461.09
2019-04-04T20:31:25.504Z,98463.78
2019-04-04T20:36:29.771Z,98464.16
2019-04-04T20:41:33.843Z,98457.47
2019-04-04T20:46:37.981Z,98464.50
2019-04-04T20:51:42.234Z,98468.17
2019-04-04T20:56:46.415Z,98463.06
2019-04-04T21:01:50.705Z,98476.76
2019-04-04T21:06:54.759Z,98486.86
2019-04-04T21:11:58.871Z,98489.05
2019-04-04T21:17:03.102Z,98489.05
2019-04-04T21:22:07.314Z,98506.73
2019-04-04T21:27:11.393Z,98508.14
2019-04-04T21:32:15.573Z,98508.14
2019-04-04T21:37:19.705Z,98534.65
2019-04-04T21:42:23.783Z,98554.08
2019-04-04T21:47:27.865Z,98551.95
2019-04-04T21:52:31.972Z,98573.66
2019-04-04T21:57:36.133Z,98573.66
2019-04-04T22:02:40.432Z,98588.33
2019-04-04T22:07:44.553Z,98600.41
2019-04-04T22:12:48.610Z,98599.77
2019-04-04T22:17:52.778Z,98617.12
2019-04-04T22:22:56.855Z,98616.92
2019-04-04T22:28:00.949Z,98606.41
2019-04-04T22:33:05.131Z,98633.25
2019-04-04T22:38:09.335Z,98637.34
2019-04-04T22:43:13.374Z,98637.34
2019-04-04T22:48:18.707Z,98649.27
2019-04-04T22:59:18.659Z,98670.54
2019-04-04T23:04:22.685Z,98688.16
2019-04-04T23:09:26.681Z,98693.50
2019-04-04T23:14:30.684Z,98693.50
2019-04-04T23:19:34.740Z,98690.66
2019-04-04T23:24:38.887Z,98699.91
2019-04-04T23:29:42.909Z,98699.91
2019-04-04T23:34:47.022Z,98690.26
2019-04-04T23:39:51.050Z,98701.95
2019-04-04T23:45:00.983Z,98701.95
2019-04-04T23:50:00.916Z,98700.53
2019-04-04T23:55:05.387Z,98700.53
